Welcome to our Virtual Airline
Sign-in:

Flight MFC30291

  • Submitted By: Brad Allen
  • Departure Airport: Kake SPB (KAE)
  • Arrival Airport: Sitka SPB (A29)
  • Aircraft: C185F (N185TMM)
  • Flight Time: 00.27.02
  • Date Submitted: 2019/02/22
  • Route: STOP AT WARM SPRING BAY (BNF)
  • Status: Accepted
Flight Details
Gross Revenue:
(3 load / $ 49.00 per unit
$ 147.00
Fuel Cost:
(24.0404 fuel used @ 5.1 / unit)
$ 122.61

Additional Log Information:

View Log

FS[10:01] ----- Flight Opened -----
FS[10:01] Cigar Box - 1.1.4.0
FS[10:01] FS: Prepar3D V4
FS[10:01] FSUIPC: v5.15
FS[10:01] Flight Number: MFC30291
FS[10:01] FS Aircraft: C185F SKYWAGON AMPHIBIAN N2449F
FS[10:01] FS Model: C185
FS[10:01] FS Type: Cessna
FS[10:01] Departure: KAE
FS[10:01] Arrival: A29
FS[10:01] Flight Level: 2500
FS[10:01] Flight Type: H
FS[10:01] Passengers: 3
FS[10:01] FOB: 384 lbs
FS[10:01] Gate: n/a
FS[10:01] NOTE: Parking Brake Ignored
FS[10:01] Crash Detection: Disabled
FS[10:01] Engines: 1 Piston
FS[10:01] NOTE: Boarding has started
FS[10:01] FS: Paused
FS[10:01] Landing Gear: Retracted
FS[10:01] Engine 1: Started
FS[10:01] Light Data: Navigation ON
FS[10:01] Light Data: Beacon ON
FS[10:01] Light Data: Strobe lights ON
FS[10:01] Main Door Closed
FS[10:01] COM1: 128.30
FS[10:01] COM2: 127.80
FS[10:01] Transponder: 1200
FS[10:01] NAV1: 113.70
FS[10:01] NAV2: 110.60
FS[10:01] ADF1: 284.0
FS[10:01] ADF2: 240.0
FS[10:01] Navigation Mode: GPS
FS[10:01] Navigation Mode: GPS
FS[10:01] FS: Unpaused
FS[15:04] FS: Paused
FS[15:04] FS: Unpaused
FS[15:04] NOTE: Taxi started
FS[15:04] NOTE: ----- TAKE OFF -----
FS[15:04] GS: 46 knots
FS[15:04] TAS: 40 knots
FS[15:04] IAS: 41 knots
FS[15:04] VS: 36 fpm
FS[15:04] FOB: 383 lbs
FS[15:04] Heading: 109°
FS[15:04] Pitch: 5°
FS[15:04] Bank: 0°
FS[15:04] Aircraft Weight: 2488.74 lbs
FS[15:04] Nearest Airport: KAE
FS[15:04] Distance: 0.17 miles
FS[15:04] Runway: 10 - PAFE
FS[15:04] Ground Surface: Water
FS[15:04] Ground Condition: Snow
FS[15:04] NOTE: Weather Report
FS[15:04] Wind Heading: 297°
FS[15:04] Wind Speed: 7 knots
FS[15:04] OAT: 1° C
FS[15:04] TAT: 1° C
FS[15:04] Precipitation: None
FS[15:04] Dew Point: -4° C
FS[15:04] Visibility: 32 miles
FS[15:04] METAR: KAEG 221947Z 16026G36KT 10SM BKN060 BKN070 08/M05 A2969 RMK SHRA DSNT W-EKAEJ 221955Z AUTO 25005KT 10SM OVC032 M03/M06 A2965 RMK AO2 T10261056KAEL 221955Z AUTO 13008KT 10SM CLR M05/M09 A3031 RMK AO2KAEX 221953Z 13005KT 6SM BR OVC005 18/17 A2995 RMK AO2 SLP146 T01830167
FS[15:04] NOTE: Climb started
FS[15:05] View Mode: Virtual Cockpit
FS[15:05] Autopilot: Engaged
FS[15:05] AGL: 482 ft
FS[15:05] AMSL: 482 ft
FS[15:06] NOTE: TOC reached
FS[15:06] NOTE: Cruise started
FS[15:06] GS: 99 knots
FS[15:06] TAS: 104 knots
FS[15:06] IAS: 104 knots
FS[15:06] VS: 188 fpm
FS[15:06] FOB: 380 lbs
FS[15:06] Heading: 291°
FS[15:06] Pitch: 0°
FS[15:06] Bank: 0°
FS[15:06] Aircraft Weight: 2485.36 lbs
FS[15:10] FS: Paused
FS[15:10] FS: Unpaused
FS[15:12] FS: Paused
FS[15:12] FS: Unpaused
FS[15:12] FS: Paused
FS[15:12] FS: Unpaused
FS[15:12] Recovery: Flight Saved
FS[15:21] NOTE: TOD reached
FS[15:21] NOTE: Descent started
FS[15:21] GS: 151 knots
FS[15:21] TAS: 156 knots
FS[15:21] IAS: 155 knots
FS[15:21] VS: -1202 fpm
FS[15:21] FOB: 345 lbs
FS[15:21] Heading: 239°
FS[15:21] Pitch: 3°
FS[15:21] Bank: -8°
FS[15:21] Aircraft Weight: 2449.85 lbs
FS[15:21] NOTE: On approach
FS[15:26] Autopilot: Disengaged
FS[15:26] AGL: 534 ft
FS[15:26] AMSL: 534 ft
FS[15:26] Flaps: Position 1
FS[15:26] GS: 89 knots
FS[15:26] TAS: 85 knots
FS[15:26] IAS: 87 knots
FS[15:26] VS: -3 fpm
FS[15:28] Flaps: Position 2
FS[15:28] GS: 77 knots
FS[15:28] TAS: 74 knots
FS[15:28] IAS: 75 knots
FS[15:28] VS: -146 fpm
FS[15:28] Flaps: Position 3
FS[15:28] GS: 66 knots
FS[15:28] TAS: 62 knots
FS[15:28] IAS: 63 knots
FS[15:28] VS: -238 fpm
FS[15:28] Flaps: Position 4
FS[15:28] GS: 64 knots
FS[15:28] TAS: 60 knots
FS[15:28] IAS: 61 knots
FS[15:28] VS: -234 fpm
FS[15:29] NOTE: ----- LANDED -----
FS[15:29] Landing Rate: -34.60 fpm
FS[15:29] GS: 50 knots
FS[15:29] TAS: 44 knots
FS[15:29] IAS: 45 knots
FS[15:29] VS: -34 fpm
FS[15:29] FOB: 332 lbs
FS[15:29] Heading: 290°
FS[15:29] Pitch: 7°
FS[15:29] Bank: -1°
FS[15:29] Aircraft Weight: 2437.72 lbs
FS[15:29] Nearest Airport: PTFA
FS[15:29] Distance: 0.07 miles
FS[15:29] Runway: 29 - PASI
FS[15:29] Ground Surface: Water
FS[15:29] Ground Condition: Snow
FS[15:29] NOTE: Weather Report
FS[15:29] Wind Heading: 87°
FS[15:29] Wind Speed: 6 knots
FS[15:29] OAT: 2° C
FS[15:29] TAT: 2° C
FS[15:29] Precipitation: None
FS[15:29] Dew Point: -4° C
FS[15:29] Visibility: 29 miles
FS[15:29] METAR: No METAR available for A29.
FS[15:29] View Mode: Virtual Cockpit
FS[15:29] NOTE: Taxi started
FS[15:29] Flaps: Position 3
FS[15:29] Flaps: Position 2
FS[15:30] Flaps: Position 1
FS[15:30] Flaps: Position 0
FS[15:30] Engine 1: Stopped
FS[15:31] FS: Paused
FS[15:31] Gate: n/a
FS[15:31] NOTE: Flight Completed
FS[15:31] FS Aircraft: C185F SKYWAGON AMPHIBIAN N2449F
FS[15:31] FS Model: C185
FS[15:31] FS Type: Cessna
FS[15:31] FOB: 331 lbs
FS[15:31] Fuel Used: 53 lbs
FS[15:31] Flight Time: 00:27:02
FS[15:31] Flight Time (Dawn): 00:00:00
FS[15:31] Flight Time (Day): 00:27:02
FS[15:31] Flight Time (Dusk): 00:00:00
FS[15:31] Flight Time (Night): 00:00:00
FS[15:31] Total Landings: 1
FS[15:31] MaxSim Rate: 0x
FS[15:31] Cigar Box - 1.1.4.0
FS[15:31] ----- Flight Closed -----

Route Map